Time;durP1;ratioP1;P1;durP2;ratioP2;P2;SDS_P1;SDS_P2;PMS_P1;PMS_P2;Temp;Humidity;BMP_temperature;BMP_pressure;BME280_temperature;BME280_humidity;BME280_pressure;Samples;Min_cycle;Max_cycle;Signal;HPM_P1;HPM_P2
2022/12/17 13:06:53;;;;;;;15.55;7.65;;;;;;;;;;7393095;19;20097;-69
2022/12/17 13:09:27;;;;;;;20.63;8.65;;;;;;;;;;7391603;19;19998;-69
2022/12/17 13:11:58;;;;;;;19.42;9.05;;;;;;;;;;7391412;19;20362;-69
2022/12/17 13:14:28;;;;;;;13.68;7.55;;;;;;;;;;7392133;19;20010;-68
2022/12/17 13:16:59;;;;;;;19.85;10.13;;;;;;;;;;7393278;19;20007;-69
2022/12/17 13:19:42;;;;;;;29.67;8.98;;;;;;;;;;7392842;19;20349;-69
2022/12/17 13:22:13;;;;;;;25.35;8.13;;;;;;;;;;7390959;19;19998;-67
2022/12/17 13:24:39;;;;;;;17.10;8.75;;;;;;;;;;7392567;19;19999;-69
2022/12/17 13:27:37;;;;;;;17.85;8.55;;;;;;;;;;7392087;19;20002;-69
2022/12/17 13:30:17;;;;;;;26.45;9.70;;;;;;;;;;7393422;19;20003;-69
2022/12/17 13:33:25;;;;;;;16.70;7.55;;;;;;;;;;7392065;19;20011;-67
2022/12/17 13:35:56;;;;;;;21.67;8.15;;;;;;;;;;7392497;19;19998;-68
2022/12/17 13:38:53;;;;;;;18.90;8.27;;;;;;;;;;7390725;19;19990;-68
2022/12/17 13:41:20;;;;;;;24.73;10.02;;;;;;;;;;7391200;19;20393;-70
2022/12/17 13:43:55;;;;;;;18.55;7.80;;;;;;;;;;7390544;19;19998;-69
2022/12/17 13:46:25;;;;;;;17.33;7.68;;;;;;;;;;7389984;19;20074;-69
2022/12/17 13:48:56;;;;;;;16.15;6.50;;;;;;;;;;7390732;19;19994;-68
2022/12/17 13:51:22;;;;;;;12.95;5.95;;;;;;;;;;7388796;19;20006;-68
2022/12/17 13:53:53;;;;;;;12.63;7.80;;;;;;;;;;7390401;19;20345;-68
2022/12/17 13:56:23;;;;;;;17.08;6.55;;;;;;;;;;7391308;19;19998;-69
2022/12/17 13:58:53;;;;;;;18.10;7.95;;;;;;;;;;7395244;19;19995;-68
2022/12/17 14:01:19;;;;;;;24.85;9.05;;;;;;;;;;7390241;19;20471;-68
2022/12/17 14:03:56;;;;;;;19.63;7.68;;;;;;;;;;7390229;19;19990;-69
2022/12/17 14:06:23;;;;;;;13.68;5.88;;;;;;;;;;7391497;19;20050;-69
2022/12/17 14:08:51;;;;;;;13.13;6.97;;;;;;;;;;7394591;19;20448;-68
2022/12/17 14:14:02;;;;;;;24.55;8.27;;;;;;;;;;7397820;19;20067;-69
2022/12/17 14:16:28;;;;;;;16.45;7.63;;;;;;;;;;7398302;19;19995;-69
2022/12/17 14:18:55;;;;;;;13.43;7.57;;;;;;;;;;7396697;19;20003;-67
2022/12/17 14:21:22;;;;;;;16.75;8.40;;;;;;;;;;7397417;19;19999;-68
2022/12/17 14:23:50;;;;;;;15.90;7.68;;;;;;;;;;7397520;19;19990;-68
2022/12/17 14:26:16;;;;;;;16.30;7.50;;;;;;;;;;7398226;19;20017;-69
2022/12/17 14:28:52;;;;;;;22.13;9.00;;;;;;;;;;7396734;19;19999;-68
2022/12/17 14:31:20;;;;;;;20.23;8.90;;;;;;;;;;7396921;19;20503;-69
2022/12/17 14:33:47;;;;;;;21.15;7.97;;;;;;;;;;7396809;19;20483;-69
2022/12/17 14:36:20;;;;;;;16.60;10.27;;;;;;;;;;7397649;19;19995;-68
2022/12/17 14:39:00;;;;;;;15.52;8.38;;;;;;;;;;7397538;19;20006;-70
2022/12/17 14:44:24;;;;;;;13.95;6.88;;;;;;;;;;7402054;19;20019;-69
2022/12/17 14:46:52;;;;;;;10.88;6.60;;;;;;;;;;7395921;19;20020;-68
2022/12/17 14:49:19;;;;;;;16.10;8.02;;;;;;;;;;7395890;19;20001;-69
2022/12/17 14:51:46;;;;;;;16.33;6.55;;;;;;;;;;7394234;19;20395;-69
2022/12/17 14:54:24;;;;;;;21.02;7.20;;;;;;;;;;7396353;19;19998;-68
2022/12/17 14:56:50;;;;;;;19.88;9.18;;;;;;;;;;7397029;19;20352;-69
2022/12/17 14:59:36;;;;;;;21.02;8.43;;;;;;;;;;7395423;19;20418;-69
2022/12/17 15:02:25;;;;;;;20.60;9.95;;;;;;;;;;7395454;19;20024;-65
2022/12/17 15:04:52;;;;;;;17.45;8.43;;;;;;;;;;7395750;19;20003;-64
2022/12/17 15:07:26;;;;;;;14.23;7.93;;;;;;;;;;7397843;19;20008;-64
2022/12/17 15:09:53;;;;;;;15.60;8.90;;;;;;;;;;7395537;19;20003;-64
2022/12/17 15:12:20;;;;;;;27.10;10.23;;;;;;;;;;7394954;19;20020;-64
2022/12/17 15:14:45;;;;;;;18.95;7.68;;;;;;;;;;7395762;19;19990;-64
2022/12/17 15:17:11;;;;;;;16.35;8.40;;;;;;;;;;7396632;19;20332;-64
2022/12/17 15:19:36;;;;;;;22.30;8.05;;;;;;;;;;7394890;19;20550;-64
2022/12/17 15:22:03;;;;;;;23.63;8.45;;;;;;;;;;7392673;19;20009;-64
2022/12/17 15:24:28;;;;;;;34.63;11.07;;;;;;;;;;7394401;19;19999;-64
2022/12/17 15:26:54;;;;;;;17.52;7.38;;;;;;;;;;7394738;19;20467;-64
2022/12/17 15:29:19;;;;;;;21.65;7.85;;;;;;;;;;7394620;19;19990;-64
2022/12/17 15:31:44;;;;;;;15.70;8.15;;;;;;;;;;7395273;19;19999;-64
2022/12/17 15:34:10;;;;;;;17.50;10.02;;;;;;;;;;7398167;19;19986;-65
2022/12/17 15:36:36;;;;;;;21.85;9.70;;;;;;;;;;7393905;19;20074;-64
2022/12/17 15:39:05;;;;;;;20.15;7.90;;;;;;;;;;7395681;19;19995;-64
2022/12/17 15:44:14;;;;;;;14.10;6.68;;;;;;;;;;7395701;19;20005;-64
2022/12/17 15:46:39;;;;;;;18.92;8.15;;;;;;;;;;7395565;19;19991;-64
2022/12/17 15:49:05;;;;;;;25.67;10.95;;;;;;;;;;7394750;19;20499;-64
2022/12/17 15:51:30;;;;;;;20.00;7.88;;;;;;;;;;7395309;19;20385;-64
2022/12/17 15:53:55;;;;;;;23.75;9.50;;;;;;;;;;7394937;19;20485;-64
2022/12/17 15:56:23;;;;;;;12.23;5.50;;;;;;;;;;7395053;19;19987;-65
2022/12/17 15:58:49;;;;;;;17.13;8.15;;;;;;;;;;7395082;19;20549;-64
2022/12/17 16:01:15;;;;;;;28.88;8.82;;;;;;;;;;7398949;19;19990;-64
2022/12/17 16:03:40;;;;;;;25.38;10.63;;;;;;;;;;7395356;19;20007;-64
2022/12/17 16:06:06;;;;;;;29.70;12.68;;;;;;;;;;7395080;19;20063;-64
2022/12/17 16:08:31;;;;;;;16.63;8.77;;;;;;;;;;7394265;19;19994;-64
2022/12/17 16:10:56;;;;;;;19.73;9.15;;;;;;;;;;7395123;19;19994;-65
2022/12/17 16:13:22;;;;;;;15.95;7.50;;;;;;;;;;7390332;19;20095;-64
2022/12/17 16:15:57;;;;;;;26.75;8.32;;;;;;;;;;7394718;19;20047;-65
2022/12/17 16:18:22;;;;;;;20.85;8.20;;;;;;;;;;7393245;19;19999;-65
2022/12/17 16:20:48;;;;;;;14.15;7.15;;;;;;;;;;7393626;19;20018;-65
2022/12/17 16:23:14;;;;;;;25.70;8.80;;;;;;;;;;7391071;19;20505;-64
2022/12/17 16:25:39;;;;;;;23.42;8.77;;;;;;;;;;7394259;19;19991;-63
2022/12/17 16:28:04;;;;;;;14.27;7.32;;;;;;;;;;7394221;19;19998;-63
2022/12/17 16:30:29;;;;;;;18.13;9.35;;;;;;;;;;7391133;19;20002;-65
2022/12/17 16:32:57;;;;;;;15.10;8.25;;;;;;;;;;7391026;19;20448;-64
2022/12/17 16:35:23;;;;;;;18.02;8.15;;;;;;;;;;7394564;19;19994;-64
2022/12/17 16:37:48;;;;;;;15.43;7.88;;;;;;;;;;7394718;19;20019;-64
2022/12/17 16:40:14;;;;;;;16.65;7.88;;;;;;;;;;7394569;19;20005;-64
2022/12/17 16:42:39;;;;;;;25.08;10.55;;;;;;;;;;7389008;19;19999;-64
2022/12/17 16:45:05;;;;;;;21.02;7.78;;;;;;;;;;7395725;19;19998;-65
2022/12/17 16:47:31;;;;;;;18.67;9.65;;;;;;;;;;7395732;19;19998;-65
2022/12/17 16:49:56;;;;;;;24.08;10.73;;;;;;;;;;7394553;19;20019;-65
2022/12/17 16:52:21;;;;;;;29.83;7.15;;;;;;;;;;7396248;19;20006;-64
2022/12/17 16:54:47;;;;;;;19.95;9.25;;;;;;;;;;7396176;19;20011;-64
2022/12/17 16:57:12;;;;;;;12.10;7.82;;;;;;;;;;7396633;19;20087;-64
2022/12/17 16:59:38;;;;;;;15.55;8.90;;;;;;;;;;7395823;19;20338;-65
2022/12/17 17:02:03;;;;;;;36.95;10.90;;;;;;;;;;7393260;19;20072;-65
2022/12/17 17:04:29;;;;;;;17.02;9.07;;;;;;;;;;7392455;19;20344;-64
2022/12/17 17:06:55;;;;;;;11.98;7.75;;;;;;;;;;7393302;19;19999;-64
2022/12/17 17:09:22;;;;;;;16.45;8.23;;;;;;;;;;7391983;19;20002;-65
2022/12/17 17:11:48;;;;;;;26.02;9.85;;;;;;;;;;7390781;19;20026;-65
2022/12/17 17:14:13;;;;;;;19.60;7.57;;;;;;;;;;7392204;19;20418;-63
2022/12/17 17:16:38;;;;;;;12.98;7.25;;;;;;;;;;7392642;19;20314;-65
2022/12/17 17:19:04;;;;;;;16.83;9.02;;;;;;;;;;7391809;19;20471;-64
2022/12/17 17:21:35;;;;;;;16.92;9.40;;;;;;;;;;7392481;19;20002;-64
2022/12/17 17:24:11;;;;;;;21.70;9.88;;;;;;;;;;7392945;19;19994;-64
2022/12/17 17:26:37;;;;;;;15.20;9.00;;;;;;;;;;7395928;19;20003;-63
2022/12/17 17:29:03;;;;;;;17.83;7.65;;;;;;;;;;7392067;19;20022;-64
2022/12/17 17:31:29;;;;;;;20.25;8.25;;;;;;;;;;7396620;19;20013;-64
2022/12/17 17:33:54;;;;;;;23.80;9.27;;;;;;;;;;7392120;19;19995;-64
2022/12/17 17:36:23;;;;;;;17.27;6.05;;;;;;;;;;7390382;19;20027;-64
2022/12/17 17:38:50;;;;;;;16.85;8.30;;;;;;;;;;7391994;19;20043;-64
2022/12/17 17:41:18;;;;;;;22.52;9.32;;;;;;;;;;7390084;19;20066;-65
2022/12/17 17:43:44;;;;;;;17.05;7.72;;;;;;;;;;7389788;19;20010;-65
2022/12/17 17:46:11;;;;;;;12.90;5.75;;;;;;;;;;7390632;19;20003;-65
2022/12/17 17:48:37;;;;;;;19.85;10.25;;;;;;;;;;7392107;19;20027;-64
2022/12/17 17:51:26;;;;;;;15.55;7.38;;;;;;;;;;7392230;19;20457;-63
2022/12/17 17:53:53;;;;;;;14.18;7.57;;;;;;;;;;7390921;19;19999;-64
2022/12/17 17:56:27;;;;;;;18.35;9.05;;;;;;;;;;7391817;19;20405;-64
2022/12/17 17:58:57;;;;;;;22.35;7.50;;;;;;;;;;7391862;19;20549;-64
2022/12/17 18:01:25;;;;;;;13.10;6.68;;;;;;;;;;7389582;19;20006;-64
2022/12/17 18:03:52;;;;;;;16.23;4.75;;;;;;;;;;7389883;19;20002;-64
2022/12/17 18:06:17;;;;;;;9.15;4.88;;;;;;;;;;7395694;19;19999;-64
2022/12/17 18:08:43;;;;;;;7.75;4.65;;;;;;;;;;7395332;19;20002;-64
2022/12/17 18:11:11;;;;;;;13.00;6.50;;;;;;;;;;7391657;19;20003;-64
2022/12/17 18:13:55;;;;;;;21.08;8.55;;;;;;;;;;7389357;19;20586;-64
2022/12/17 18:16:22;;;;;;;18.63;6.72;;;;;;;;;;7391307;19;20018;-65
2022/12/17 18:18:47;;;;;;;15.93;7.88;;;;;;;;;;7389137;19;20038;-64
2022/12/17 18:21:16;;;;;;;23.70;6.28;;;;;;;;;;7390787;19;20002;-64
2022/12/17 18:23:42;;;;;;;15.38;7.05;;;;;;;;;;7389963;19;20003;-64
2022/12/17 18:26:20;;;;;;;18.88;6.55;;;;;;;;;;7390891;19;20416;-65
2022/12/17 18:28:46;;;;;;;19.45;6.43;;;;;;;;;;7390443;19;20005;-64
2022/12/17 18:31:16;;;;;;;21.30;7.78;;;;;;;;;;7390893;19;20002;-62
2022/12/17 18:33:45;;;;;;;14.15;6.22;;;;;;;;;;7390277;19;20003;-65
2022/12/17 18:36:13;;;;;;;12.30;5.85;;;;;;;;;;7392196;19;20023;-64
2022/12/17 18:38:39;;;;;;;16.80;6.93;;;;;;;;;;7395486;19;20416;-65
2022/12/17 18:43:21;;;;;;;13.90;7.13;;;;;;;;;;7390967;19;20050;-63
2022/12/17 18:43:52;;;;;;;12.52;6.50;;;;;;;;;;7389944;19;20021;-65
2022/12/17 18:46:17;;;;;;;13.95;4.90;;;;;;;;;;7390733;19;20448;-64
2022/12/17 18:48:42;;;;;;;10.55;6.22;;;;;;;;;;7389855;19;20468;-64
2022/12/17 18:51:08;;;;;;;12.38;6.15;;;;;;;;;;7390002;19;20018;-63
2022/12/17 18:53:33;;;;;;;16.80;5.25;;;;;;;;;;7389749;19;19991;-66
2022/12/17 18:56:05;;;;;;;15.90;6.93;;;;;;;;;;7392299;19;20483;-65
2022/12/17 18:58:31;;;;;;;12.93;7.60;;;;;;;;;;7397324;19;20070;-65
2022/12/17 19:00:56;;;;;;;14.98;7.15;;;;;;;;;;7397124;19;19991;-65
2022/12/17 19:03:21;;;;;;;15.10;6.68;;;;;;;;;;7394079;19;19991;-64
2022/12/17 19:05:47;;;;;;;10.75;5.40;;;;;;;;;;7397576;19;19999;-64
2022/12/17 19:08:12;;;;;;;13.13;6.45;;;;;;;;;;7395086;19;20011;-63
2022/12/17 19:10:38;;;;;;;18.27;6.40;;;;;;;;;;7394484;19;19999;-64
2022/12/17 19:13:03;;;;;;;13.57;6.60;;;;;;;;;;7394299;19;19999;-65
2022/12/17 19:15:29;;;;;;;12.73;7.05;;;;;;;;;;7396641;19;20002;-63
2022/12/17 19:17:54;;;;;;;14.75;7.22;;;;;;;;;;7396313;19;20070;-65
2022/12/17 19:20:19;;;;;;;17.70;7.65;;;;;;;;;;7396660;19;19994;-65
2022/12/17 19:22:44;;;;;;;17.02;7.65;;;;;;;;;;7392275;19;19998;-64
2022/12/17 19:25:10;;;;;;;14.60;7.15;;;;;;;;;;7395400;19;19990;-64
2022/12/17 19:27:35;;;;;;;16.60;7.43;;;;;;;;;;7396334;19;20482;-64
2022/12/17 19:30:00;;;;;;;15.25;7.55;;;;;;;;;;7394340;19;20002;-64
2022/12/17 19:32:26;;;;;;;12.90;8.23;;;;;;;;;;7394856;19;20078;-64
2022/12/17 19:34:51;;;;;;;14.27;7.10;;;;;;;;;;7399192;19;19995;-65
2022/12/17 19:37:16;;;;;;;12.68;6.80;;;;;;;;;;7395709;19;20470;-65
2022/12/17 19:39:42;;;;;;;11.48;7.57;;;;;;;;;;7395671;19;20002;-63
2022/12/17 19:42:23;;;;;;;12.63;6.57;;;;;;;;;;7394516;19;20333;-65
2022/12/17 19:44:48;;;;;;;15.80;7.18;;;;;;;;;;7395266;19;20061;-65
2022/12/17 19:47:14;;;;;;;10.65;5.80;;;;;;;;;;7394177;19;20012;-65
2022/12/17 19:49:39;;;;;;;16.15;6.85;;;;;;;;;;7393825;19;19990;-64
2022/12/17 19:52:04;;;;;;;19.50;8.00;;;;;;;;;;7394269;19;20015;-65
2022/12/17 19:54:30;;;;;;;21.33;8.30;;;;;;;;;;7394582;19;19998;-64
2022/12/17 19:56:55;;;;;;;14.68;6.88;;;;;;;;;;7395232;19;20002;-64
2022/12/17 19:59:20;;;;;;;20.10;8.70;;;;;;;;;;7394977;19;20014;-64
2022/12/17 20:01:47;;;;;;;20.42;9.98;;;;;;;;;;7394469;19;20013;-65
2022/12/17 20:04:15;;;;;;;17.40;5.82;;;;;;;;;;7399391;19;20022;-64
2022/12/17 20:06:41;;;;;;;22.60;7.10;;;;;;;;;;7395002;19;20091;-63
2022/12/17 20:09:06;;;;;;;14.52;6.55;;;;;;;;;;7393056;19;20437;-64
2022/12/17 20:11:32;;;;;;;19.83;10.02;;;;;;;;;;7394016;19;20074;-64
2022/12/17 20:14:05;;;;;;;17.15;7.55;;;;;;;;;;7394297;19;20407;-65
2022/12/17 20:16:36;;;;;;;21.48;8.43;;;;;;;;;;7393630;19;20082;-64
2022/12/17 20:19:03;;;;;;;13.98;7.40;;;;;;;;;;7393098;19;19998;-64
2022/12/17 20:21:29;;;;;;;21.60;6.18;;;;;;;;;;7393701;19;20074;-64
2022/12/17 20:23:54;;;;;;;11.57;6.68;;;;;;;;;;7393658;19;20003;-65
2022/12/17 20:26:20;;;;;;;19.27;7.90;;;;;;;;;;7394007;19;20514;-64
2022/12/17 20:28:45;;;;;;;18.65;8.13;;;;;;;;;;7393469;19;20064;-64
2022/12/17 20:31:11;;;;;;;18.38;7.65;;;;;;;;;;7398122;19;20010;-64
2022/12/17 20:33:37;;;;;;;30.33;7.65;;;;;;;;;;7395328;19;19994;-63
2022/12/17 20:36:09;;;;;;;14.07;7.97;;;;;;;;;;7396322;19;19995;-63
2022/12/17 20:38:34;;;;;;;15.35;7.60;;;;;;;;;;7393927;19;19994;-64
2022/12/17 20:41:00;;;;;;;21.40;7.78;;;;;;;;;;7393776;19;20067;-65
2022/12/17 20:43:26;;;;;;;14.95;7.07;;;;;;;;;;7391465;19;20007;-64
2022/12/17 20:45:55;;;;;;;15.57;7.70;;;;;;;;;;7395817;19;20381;-64
2022/12/17 20:48:21;;;;;;;24.02;11.30;;;;;;;;;;7393995;19;20010;-64
2022/12/17 20:50:47;;;;;;;19.38;9.25;;;;;;;;;;7391798;19;20429;-64
2022/12/17 20:53:12;;;;;;;16.27;8.55;;;;;;;;;;7389249;19;19997;-64
2022/12/17 20:55:37;;;;;;;14.45;5.55;;;;;;;;;;7391603;19;20015;-65
2022/12/17 20:58:03;;;;;;;15.95;7.15;;;;;;;;;;7392743;19;20006;-64
2022/12/17 21:00:28;;;;;;;18.10;9.32;;;;;;;;;;7393053;19;19999;-63
2022/12/17 21:02:53;;;;;;;15.93;6.85;;;;;;;;;;7390363;19;20010;-67
2022/12/17 21:05:19;;;;;;;13.35;5.97;;;;;;;;;;7392785;19;20005;-67
2022/12/17 21:07:45;;;;;;;11.52;4.03;;;;;;;;;;7393422;19;20486;-67
2022/12/17 21:10:11;;;;;;;13.13;6.88;;;;;;;;;;7391137;19;19998;-68
2022/12/17 21:15:21;;;;;;;15.00;9.02;;;;;;;;;;7392430;19;20010;-67
2022/12/17 21:17:46;;;;;;;18.30;6.85;;;;;;;;;;7392850;19;20003;-67
2022/12/17 21:20:12;;;;;;;16.83;7.75;;;;;;;;;;7389866;19;19999;-67
2022/12/17 21:22:38;;;;;;;21.60;7.47;;;;;;;;;;7390438;19;20358;-68
2022/12/17 21:25:04;;;;;;;13.88;6.22;;;;;;;;;;7390290;19;20003;-67
2022/12/17 21:27:30;;;;;;;18.45;7.75;;;;;;;;;;7390056;19;20052;-68
2022/12/17 21:29:56;;;;;;;23.45;8.18;;;;;;;;;;7390582;19;19995;-68
2022/12/17 21:32:21;;;;;;;23.02;9.05;;;;;;;;;;7390837;19;20006;-67
2022/12/17 21:34:46;;;;;;;14.88;7.20;;;;;;;;;;7391077;19;20456;-67
2022/12/17 21:37:12;;;;;;;18.85;7.45;;;;;;;;;;7391579;19;20079;-66
2022/12/17 21:39:37;;;;;;;15.60;6.60;;;;;;;;;;7393049;19;20474;-66
2022/12/17 21:44:47;;;;;;;24.73;11.18;;;;;;;;;;7391078;19;20119;-67
2022/12/17 21:47:12;;;;;;;19.10;9.68;;;;;;;;;;7391268;19;19995;-68
2022/12/17 21:49:37;;;;;;;15.13;7.43;;;;;;;;;;7390110;19;20484;-67
2022/12/17 21:52:03;;;;;;;10.80;6.63;;;;;;;;;;7389403;19;20011;-67
2022/12/17 21:54:29;;;;;;;19.15;8.63;;;;;;;;;;7394593;19;20069;-67
2022/12/17 21:56:54;;;;;;;19.80;10.05;;;;;;;;;;7390944;19;20014;-67
2022/12/17 21:59:19;;;;;;;16.55;7.97;;;;;;;;;;7391166;19;20002;-67
2022/12/17 22:01:45;;;;;;;13.77;6.50;;;;;;;;;;7390589;19;19998;-67
2022/12/17 22:04:10;;;;;;;16.55;8.23;;;;;;;;;;7390200;19;20092;-67
2022/12/17 22:06:37;;;;;;;12.43;5.07;;;;;;;;;;7390715;19;19995;-67
2022/12/17 22:09:04;;;;;;;10.25;7.20;;;;;;;;;;7388887;19;20390;-68
2022/12/17 22:11:29;;;;;;;12.52;6.65;;;;;;;;;;7390413;19;20070;-68
2022/12/17 22:14:01;;;;;;;16.58;7.22;;;;;;;;;;7388137;19;20003;-68
2022/12/17 22:16:30;;;;;;;8.23;6.78;;;;;;;;;;7389590;19;20033;-67
2022/12/17 22:18:57;;;;;;;20.63;8.35;;;;;;;;;;7394194;19;20073;-67
2022/12/17 22:21:23;;;;;;;11.10;5.70;;;;;;;;;;7391376;19;20379;-67
2022/12/17 22:23:48;;;;;;;16.00;7.78;;;;;;;;;;7389715;19;20428;-67
2022/12/17 22:26:15;;;;;;;12.95;6.85;;;;;;;;;;7392192;19;20002;-67
2022/12/17 22:28:48;;;;;;;14.10;8.63;;;;;;;;;;7391220;19;20086;-69
2022/12/17 22:34:01;;;;;;;7.60;4.57;;;;;;;;;;7397976;19;20480;-67
2022/12/17 22:36:28;;;;;;;12.30;4.93;;;;;;;;;;7398076;19;19991;-67
2022/12/17 22:38:54;;;;;;;18.00;6.43;;;;;;;;;;7397858;19;20001;-70
2022/12/17 22:44:03;;;;;;;13.18;5.82;;;;;;;;;;7397221;19;20397;-67
2022/12/17 22:46:30;;;;;;;12.32;5.00;;;;;;;;;;7396167;19;19991;-70
2022/12/17 22:48:56;;;;;;;8.30;6.90;;;;;;;;;;7396673;19;19999;-68
2022/12/17 22:51:23;;;;;;;8.45;2.60;;;;;;;;;;7397315;19;20468;-67
2022/12/17 22:53:48;;;;;;;16.27;5.80;;;;;;;;;;7395575;19;19999;-68
2022/12/17 22:56:14;;;;;;;10.82;6.40;;;;;;;;;;7396752;19;20005;-68
2022/12/17 22:58:39;;;;;;;6.88;5.18;;;;;;;;;;7396796;19;20000;-68
2022/12/17 23:01:05;;;;;;;13.32;6.45;;;;;;;;;;7396750;19;19991;-67
2022/12/17 23:03:30;;;;;;;10.20;5.55;;;;;;;;;;7393875;19;19998;-68
2022/12/17 23:06:10;;;;;;;13.00;6.07;;;;;;;;;;7396685;19;20011;-68
2022/12/17 23:08:36;;;;;;;11.05;5.50;;;;;;;;;;7396269;19;20027;-71
2022/12/17 23:11:09;;;;;;;8.70;5.88;;;;;;;;;;7396422;19;20474;-67
2022/12/17 23:13:35;;;;;;;14.60;6.78;;;;;;;;;;7393736;19;20342;-68
2022/12/17 23:16:01;;;;;;;15.18;5.65;;;;;;;;;;7396520;19;20019;-67
2022/12/17 23:18:26;;;;;;;17.23;7.10;;;;;;;;;;7396099;19;20029;-67
2022/12/17 23:20:52;;;;;;;9.32;6.05;;;;;;;;;;7396162;19;19994;-67
2022/12/17 23:23:17;;;;;;;9.55;5.57;;;;;;;;;;7392091;19;19999;-68
2022/12/17 23:25:42;;;;;;;11.23;5.10;;;;;;;;;;7395955;19;20413;-68
2022/12/17 23:28:08;;;;;;;10.88;5.90;;;;;;;;;;7396032;19;19995;-66
2022/12/17 23:30:35;;;;;;;28.35;6.47;;;;;;;;;;7393606;19;20003;-68
2022/12/17 23:33:01;;;;;;;7.45;4.93;;;;;;;;;;7392193;19;20005;-67
2022/12/17 23:35:26;;;;;;;17.83;7.68;;;;;;;;;;7395667;19;20007;-67
2022/12/17 23:37:51;;;;;;;10.43;5.80;;;;;;;;;;7395721;19;20018;-67
2022/12/17 23:40:17;;;;;;;14.48;7.35;;;;;;;;;;7396092;19;20026;-68
2022/12/17 23:42:42;;;;;;;5.25;3.50;;;;;;;;;;7391659;19;20098;-67
2022/12/17 23:45:10;;;;;;;8.25;6.05;;;;;;;;;;7395754;19;20082;-67
2022/12/17 23:47:35;;;;;;;7.45;5.57;;;;;;;;;;7397165;19;20107;-67
2022/12/17 23:50:00;;;;;;;11.52;7.13;;;;;;;;;;7394395;19;19994;-67
2022/12/17 23:52:26;;;;;;;13.48;7.63;;;;;;;;;;7393985;19;20078;-68
2022/12/17 23:54:51;;;;;;;12.60;5.85;;;;;;;;;;7392894;19;20006;-68
2022/12/17 23:57:16;;;;;;;16.30;7.32;;;;;;;;;;7398327;19;20010;-67
2022/12/17 23:59:42;;;;;;;10.82;7.57;;;;;;;;;;7393237;19;20050;-68
